createdAt,value
2023-02-12T00:00:07.972Z,10.13
2023-02-12T00:02:42.199Z,11.15
2023-02-12T00:05:09.457Z,12.35
2023-02-12T00:07:36.523Z,11.00
2023-02-12T00:10:03.732Z,10.18
2023-02-12T00:12:30.957Z,10.05
2023-02-12T00:14:58.079Z,11.00
2023-02-12T00:17:25.116Z,11.63
2023-02-12T00:19:52.184Z,10.52
2023-02-12T00:22:19.286Z,11.30
2023-02-12T00:24:46.372Z,10.65
2023-02-12T00:27:13.489Z,10.80
2023-02-12T00:29:40.615Z,12.88
2023-02-12T00:32:07.793Z,11.52
2023-02-12T00:34:35.017Z,12.32
2023-02-12T00:37:02.221Z,11.93
2023-02-12T00:39:29.357Z,12.95
2023-02-12T00:41:56.498Z,11.20
2023-02-12T00:44:23.639Z,12.32
2023-02-12T00:46:51.910Z,11.43
2023-02-12T00:49:20.323Z,12.70
2023-02-12T00:51:47.433Z,12.25
2023-02-12T00:54:14.545Z,11.98
2023-02-12T00:56:41.713Z,12.45
2023-02-12T00:59:08.956Z,11.52
2023-02-12T01:01:36.242Z,12.10
2023-02-12T01:04:04.069Z,11.52
2023-02-12T01:06:31.149Z,12.98
2023-02-12T01:08:58.291Z,12.45
2023-02-12T01:11:25.379Z,12.10
2023-02-12T01:13:52.924Z,12.77
2023-02-12T01:16:22.239Z,12.15
2023-02-12T01:18:51.071Z,12.95
2023-02-12T01:21:20.611Z,13.32
2023-02-12T01:23:48.113Z,13.23
2023-02-12T01:26:15.818Z,12.60
2023-02-12T01:28:43.567Z,13.50
2023-02-12T01:31:17.086Z,13.57
2023-02-12T01:33:44.648Z,13.50
2023-02-12T01:36:11.901Z,13.50
2023-02-12T01:38:39.065Z,14.20
2023-02-12T01:41:11.602Z,14.13
2023-02-12T01:43:39.343Z,13.93
2023-02-12T01:46:07.598Z,14.27
2023-02-12T01:48:37.234Z,14.35
2023-02-12T01:51:05.011Z,15.68
2023-02-12T01:53:41.118Z,15.55
2023-02-12T01:56:09.526Z,15.38
2023-02-12T01:58:38.593Z,15.90
2023-02-12T02:01:07.058Z,16.73
2023-02-12T02:03:36.694Z,16.13
2023-02-12T02:06:15.020Z,15.60
2023-02-12T02:08:42.898Z,16.58
2023-02-12T02:11:39.906Z,16.70
2023-02-12T02:14:25.688Z,14.82
2023-02-12T02:17:07.901Z,16.27
2023-02-12T02:19:53.760Z,16.30
2023-02-12T02:22:29.780Z,17.75
2023-02-12T02:25:15.854Z,17.58
2023-02-12T02:27:51.869Z,16.95
2023-02-12T02:30:26.973Z,17.38
2023-02-12T02:33:08.961Z,17.08
2023-02-12T02:35:39.242Z,19.17
2023-02-12T02:38:19.063Z,18.83
2023-02-12T02:40:49.309Z,18.50
2023-02-12T02:43:18.386Z,19.77
2023-02-12T02:45:53.558Z,20.13
2023-02-12T02:48:25.207Z,18.45
2023-02-12T02:50:56.268Z,19.60
2023-02-12T02:53:28.282Z,19.15
2023-02-12T02:55:57.384Z,18.60
2023-02-12T02:58:27.497Z,18.77
2023-02-12T03:00:54.631Z,18.55
2023-02-12T03:03:25.185Z,20.33
2023-02-12T03:05:54.575Z,18.33
2023-02-12T03:08:27.489Z,20.15
2023-02-12T03:11:00.312Z,20.33
2023-02-12T03:13:33.078Z,20.50
2023-02-12T03:16:05.172Z,18.77
2023-02-12T03:18:36.264Z,20.55
2023-02-12T03:21:05.732Z,20.50
2023-02-12T03:23:36.586Z,22.35
2023-02-12T03:26:10.925Z,20.25
2023-02-12T03:28:38.814Z,20.27
2023-02-12T03:31:15.146Z,21.13
2023-02-12T03:33:42.323Z,20.52
2023-02-12T03:36:18.438Z,21.77
2023-02-12T03:38:48.340Z,20.65
2023-02-12T03:41:21.817Z,21.25
2023-02-12T03:43:51.573Z,22.52
2023-02-12T03:46:26.454Z,21.70
2023-02-12T03:49:11.452Z,21.33
2023-02-12T03:51:40.095Z,20.50
2023-02-12T03:54:08.646Z,20.25
2023-02-12T03:56:39.517Z,21.45
2023-02-12T03:59:06.793Z,20.17
2023-02-12T04:01:35.103Z,22.38
2023-02-12T04:04:06.842Z,19.70
2023-02-12T04:06:34.091Z,20.95
2023-02-12T04:09:09.740Z,19.85
2023-02-12T04:11:46.113Z,19.02
2023-02-12T04:14:31.683Z,21.38
2023-02-12T04:16:59.161Z,19.95
2023-02-12T04:19:44.535Z,19.23
2023-02-12T04:22:14.348Z,20.35
2023-02-12T04:24:50.454Z,20.45
2023-02-12T04:27:26.279Z,19.95
2023-02-12T04:30:04.137Z,20.88
2023-02-12T04:32:31.200Z,19.75
2023-02-12T04:35:01.453Z,19.10
2023-02-12T04:37:31.481Z,19.73
2023-02-12T04:39:59.245Z,21.02
2023-02-12T04:42:26.670Z,19.90
2023-02-12T04:44:54.000Z,22.20
2023-02-12T04:47:21.081Z,21.45
2023-02-12T04:49:48.280Z,22.15
2023-02-12T04:52:15.462Z,23.27
2023-02-12T04:54:42.652Z,21.77
2023-02-12T04:57:09.929Z,22.70
2023-02-12T04:59:37.056Z,23.17
2023-02-12T05:02:04.127Z,22.23
2023-02-12T05:04:31.212Z,23.25
2023-02-12T05:06:58.287Z,23.35
2023-02-12T05:09:25.457Z,20.40
2023-02-12T05:11:52.644Z,21.10
2023-02-12T05:14:19.877Z,19.55
2023-02-12T05:16:47.046Z,19.52
2023-02-12T05:19:14.151Z,20.33
2023-02-12T05:21:41.296Z,20.15
2023-02-12T05:24:08.861Z,22.23
2023-02-12T05:26:36.122Z,21.75
2023-02-12T05:29:03.456Z,21.92
2023-02-12T05:31:30.720Z,22.10
2023-02-12T05:33:57.941Z,23.20
2023-02-12T05:36:25.656Z,22.30
2023-02-12T05:38:53.508Z,24.52
2023-02-12T05:41:21.918Z,24.88
2023-02-12T05:43:49.879Z,26.33
2023-02-12T05:46:17.443Z,24.38
2023-02-12T05:48:44.760Z,26.75
2023-02-12T05:51:13.725Z,28.75
2023-02-12T05:53:41.574Z,26.95
2023-02-12T05:56:13.603Z,27.88
2023-02-12T05:58:41.570Z,24.70
2023-02-12T06:01:13.982Z,26.45
2023-02-12T06:03:42.603Z,23.65
2023-02-12T06:06:10.194Z,24.70
2023-02-12T06:08:37.701Z,22.88
2023-02-12T06:11:06.079Z,23.05
2023-02-12T06:13:33.594Z,23.98
2023-02-12T06:16:00.774Z,25.83
2023-02-12T06:18:28.471Z,23.55
2023-02-12T06:20:55.644Z,22.10
2023-02-12T06:23:23.712Z,23.15
2023-02-12T06:25:51.648Z,22.20
2023-02-12T06:28:18.855Z,22.25
2023-02-12T06:30:46.067Z,24.77
2023-02-12T06:33:13.145Z,24.67
2023-02-12T06:35:40.664Z,25.50
2023-02-12T06:38:07.942Z,24.67
2023-02-12T06:40:35.079Z,25.10
2023-02-12T06:43:02.192Z,27.38
2023-02-12T06:45:29.304Z,25.45
2023-02-12T06:47:56.418Z,24.92
2023-02-12T06:50:24.648Z,27.05
2023-02-12T06:52:55.222Z,26.63
2023-02-12T06:55:22.350Z,27.08
2023-02-12T06:57:49.586Z,25.58
2023-02-12T07:00:16.862Z,25.58
2023-02-12T07:02:44.010Z,27.05
2023-02-12T07:05:11.152Z,26.80
2023-02-12T07:07:38.257Z,24.45
2023-02-12T07:10:05.543Z,26.23
2023-02-12T07:12:34.072Z,26.17
2023-02-12T07:15:01.196Z,25.85
2023-02-12T07:17:30.718Z,27.50
2023-02-12T07:20:01.354Z,24.67
2023-02-12T07:22:29.208Z,25.85
2023-02-12T07:24:56.342Z,25.60
2023-02-12T07:27:23.522Z,25.40
2023-02-12T07:29:50.754Z,25.65
2023-02-12T07:32:17.841Z,27.15
2023-02-12T07:34:45.002Z,27.27
2023-02-12T07:37:12.166Z,28.35
2023-02-12T07:39:39.305Z,27.17
2023-02-12T07:42:08.546Z,26.45
2023-02-12T07:44:36.132Z,28.17
2023-02-12T07:47:04.356Z,27.60
2023-02-12T07:49:31.499Z,27.45
2023-02-12T07:51:58.559Z,29.83
2023-02-12T07:54:25.739Z,31.30
2023-02-12T07:56:52.898Z,31.33
2023-02-12T07:59:21.306Z,31.50
2023-02-12T08:01:50.184Z,29.05
2023-02-12T08:04:19.381Z,30.15
2023-02-12T08:06:47.859Z,30.50
2023-02-12T08:09:17.088Z,30.52
2023-02-12T08:11:44.614Z,31.98
2023-02-12T08:14:12.672Z,28.67
2023-02-12T08:16:43.628Z,30.60
2023-02-12T08:19:19.013Z,29.42
2023-02-12T08:21:47.384Z,30.15
2023-02-12T08:24:14.569Z,29.85
2023-02-12T08:26:41.761Z,30.48
2023-02-12T08:29:10.414Z,29.67
2023-02-12T08:31:45.356Z,30.35
2023-02-12T08:34:19.639Z,29.65
2023-02-12T08:36:47.303Z,33.30
2023-02-12T08:39:14.921Z,31.77
2023-02-12T08:41:44.809Z,31.30
2023-02-12T08:44:12.558Z,30.27
2023-02-12T08:46:40.931Z,31.77
2023-02-12T08:49:10.154Z,31.73
2023-02-12T08:51:39.435Z,29.33
2023-02-12T08:54:07.415Z,31.58
2023-02-12T08:56:35.897Z,28.30
2023-02-12T08:59:04.658Z,30.88
2023-02-12T09:01:33.321Z,27.83
2023-02-12T09:04:00.577Z,27.95
2023-02-12T09:06:28.185Z,27.83
2023-02-12T09:08:55.572Z,28.33
2023-02-12T09:11:26.543Z,27.90
2023-02-12T09:13:53.832Z,26.80
2023-02-12T09:16:21.072Z,26.48
2023-02-12T09:18:48.195Z,24.90
2023-02-12T09:21:16.722Z,26.40
2023-02-12T09:23:44.732Z,26.27
2023-02-12T09:26:13.297Z,25.33
2023-02-12T09:28:40.545Z,23.90
2023-02-12T09:31:07.836Z,25.73
2023-02-12T09:33:35.175Z,23.15
2023-02-12T09:36:03.407Z,24.55
2023-02-12T09:38:30.722Z,23.27
2023-02-12T09:41:05.245Z,23.25
2023-02-12T09:43:37.563Z,23.88
2023-02-12T09:46:07.352Z,23.48
2023-02-12T09:48:40.115Z,23.30
2023-02-12T09:51:09.081Z,21.73
2023-02-12T09:53:38.566Z,22.73
2023-02-12T09:56:15.637Z,19.55
2023-02-12T09:58:45.189Z,21.02
2023-02-12T10:01:16.972Z,22.08
2023-02-12T10:03:44.938Z,20.00
2023-02-12T10:06:15.201Z,20.00
2023-02-12T10:08:48.163Z,19.65
2023-02-12T10:11:18.108Z,18.20
2023-02-12T10:13:45.434Z,18.15
2023-02-12T10:16:24.512Z,16.98
2023-02-12T10:18:54.706Z,18.92
2023-02-12T10:21:21.927Z,19.10
2023-02-12T10:23:58.903Z,18.58
2023-02-12T10:26:52.052Z,18.02
2023-02-12T10:29:26.610Z,17.60
2023-02-12T10:32:13.991Z,16.38
2023-02-12T10:34:42.084Z,16.77
2023-02-12T10:37:15.483Z,16.02
2023-02-12T10:39:45.854Z,16.17
2023-02-12T10:42:23.055Z,16.15
2023-02-12T10:44:50.149Z,16.42
2023-02-12T10:47:24.608Z,16.30
2023-02-12T10:49:56.389Z,16.20
2023-02-12T10:52:38.775Z,15.27
2023-02-12T10:55:24.259Z,15.48
2023-02-12T10:57:51.532Z,13.20
2023-02-12T11:00:21.977Z,13.88
2023-02-12T11:03:09.446Z,14.90
2023-02-12T11:05:37.191Z,14.98
2023-02-12T11:08:04.727Z,15.32
2023-02-12T11:10:33.486Z,16.02
2023-02-12T11:13:01.187Z,15.27
2023-02-12T11:15:31.306Z,16.08
2023-02-12T11:18:00.908Z,13.88
2023-02-12T11:20:29.527Z,13.27
2023-02-12T11:23:00.223Z,12.88
2023-02-12T11:25:33.497Z,15.48
2023-02-12T11:28:02.276Z,13.90
2023-02-12T11:30:29.455Z,13.10
2023-02-12T11:33:15.009Z,13.88
2023-02-12T11:35:49.661Z,13.40
2023-02-12T11:38:37.350Z,13.45
2023-02-12T11:41:10.764Z,14.85
2023-02-12T11:43:39.612Z,14.77
2023-02-12T11:46:08.587Z,13.82
2023-02-12T11:48:38.966Z,14.07
2023-02-12T11:51:09.096Z,14.27
2023-02-12T11:53:42.460Z,14.50
2023-02-12T11:56:11.651Z,13.13
2023-02-12T11:58:42.557Z,14.88
2023-02-12T12:01:16.569Z,15.23
2023-02-12T12:04:04.316Z,15.90
2023-02-12T12:06:42.131Z,14.75
2023-02-12T12:09:22.501Z,14.80
2023-02-12T12:12:03.217Z,13.07
2023-02-12T12:14:31.874Z,14.10
2023-02-12T12:17:17.622Z,13.77
2023-02-12T12:19:53.972Z,14.82
2023-02-12T12:22:36.982Z,16.02
2023-02-12T12:25:17.078Z,13.77
2023-02-12T12:28:09.995Z,14.15
2023-02-12T12:30:39.915Z,13.65
2023-02-12T12:33:14.024Z,14.35
2023-02-12T12:35:59.817Z,14.27
2023-02-12T12:38:47.193Z,14.30
2023-02-12T12:41:20.297Z,14.63
2023-02-12T12:43:52.955Z,13.10
2023-02-12T12:49:22.672Z,13.82
2023-02-12T12:52:08.492Z,13.38
2023-02-12T12:54:54.511Z,13.90
2023-02-12T12:57:29.207Z,13.60
2023-02-12T13:00:09.435Z,14.57
2023-02-12T13:02:38.140Z,13.60
2023-02-12T13:05:05.217Z,12.73
2023-02-12T13:07:39.067Z,14.95
2023-02-12T13:10:08.871Z,14.60
2023-02-12T13:12:45.036Z,14.32
2023-02-12T13:15:19.880Z,14.00
2023-02-12T13:17:56.163Z,14.88
2023-02-12T13:20:27.579Z,13.80
2023-02-12T13:22:54.648Z,13.45
2023-02-12T13:25:30.799Z,14.23
2023-02-12T13:27:59.056Z,13.77
2023-02-12T13:30:29.990Z,14.23
2023-02-12T13:32:57.083Z,14.38
2023-02-12T13:35:25.699Z,14.68
2023-02-12T13:37:54.075Z,14.52
2023-02-12T13:40:21.164Z,13.73
2023-02-12T13:42:53.313Z,14.13
2023-02-12T13:45:39.406Z,13.20
2023-02-12T13:48:15.972Z,12.60
2023-02-12T13:50:48.359Z,14.05
2023-02-12T13:53:34.334Z,13.48
2023-02-12T13:56:14.523Z,14.80
2023-02-12T13:58:47.872Z,13.23
2023-02-12T14:01:35.389Z,12.70
2023-02-12T14:04:34.908Z,12.65
2023-02-12T14:07:02.000Z,12.02
2023-02-12T14:09:46.377Z,13.98
2023-02-12T14:12:25.333Z,13.75
2023-02-12T14:14:55.562Z,13.60
2023-02-12T14:17:31.775Z,13.75
2023-02-12T14:20:17.462Z,13.57
2023-02-12T14:22:46.257Z,13.38
2023-02-12T14:25:25.436Z,14.25
2023-02-12T14:28:01.678Z,13.00
2023-02-12T14:30:31.341Z,12.93
2023-02-12T14:33:00.817Z,11.90
2023-02-12T14:35:32.041Z,11.38
2023-02-12T14:38:01.964Z,13.43
2023-02-12T14:40:32.185Z,11.70
2023-02-12T14:42:59.776Z,13.05
2023-02-12T14:45:31.511Z,12.73
2023-02-12T14:47:58.880Z,12.70
2023-02-12T14:50:32.408Z,14.20
2023-02-12T14:53:05.121Z,13.10
2023-02-12T14:55:36.742Z,14.35
2023-02-12T14:58:15.297Z,12.37
2023-02-12T15:00:45.802Z,12.38
2023-02-12T15:03:15.710Z,14.73
2023-02-12T15:06:01.884Z,13.07
2023-02-12T15:08:41.241Z,13.57
2023-02-12T15:11:21.123Z,13.27
2023-02-12T15:13:56.354Z,13.02
2023-02-12T15:16:27.964Z,14.43
2023-02-12T15:18:58.923Z,13.70
2023-02-12T15:21:27.680Z,14.23
2023-02-12T15:24:02.427Z,13.70
2023-02-12T15:26:30.593Z,13.88
2023-02-12T15:28:57.756Z,13.68
2023-02-12T15:31:30.008Z,13.77
2023-02-12T15:33:58.179Z,14.43
2023-02-12T15:36:26.822Z,13.07
2023-02-12T15:39:01.646Z,12.60
2023-02-12T15:41:34.736Z,12.75
2023-02-12T15:44:03.051Z,12.18
2023-02-12T15:46:30.288Z,11.02
2023-02-12T15:48:57.930Z,12.45
2023-02-12T15:51:37.173Z,12.20
2023-02-12T15:54:06.323Z,11.82
2023-02-12T15:56:34.816Z,12.00
2023-02-12T15:59:02.491Z,12.50
2023-02-12T16:01:34.990Z,11.90
2023-02-12T16:04:03.288Z,12.48
2023-02-12T16:06:32.314Z,12.55
2023-02-12T16:09:02.574Z,12.15
2023-02-12T16:11:29.925Z,12.02
2023-02-12T16:14:08.904Z,12.57
2023-02-12T16:16:46.490Z,11.88
2023-02-12T16:19:21.534Z,11.80
2023-02-12T16:21:50.592Z,11.75
2023-02-12T16:24:30.158Z,12.30
2023-02-12T16:26:58.662Z,12.23
2023-02-12T16:29:27.082Z,12.30
2023-02-12T16:31:55.875Z,11.15
2023-02-12T16:34:49.208Z,12.27
2023-02-12T16:37:34.931Z,11.23
2023-02-12T16:40:02.046Z,11.57
2023-02-12T16:42:29.536Z,11.27
2023-02-12T16:44:56.793Z,12.02
2023-02-12T16:47:24.816Z,12.60
2023-02-12T16:49:56.020Z,11.38
2023-02-12T16:52:34.243Z,13.18
2023-02-12T16:55:01.651Z,13.43
2023-02-12T16:57:28.838Z,12.35
2023-02-12T16:59:55.978Z,12.52
2023-02-12T17:02:23.117Z,13.70
2023-02-12T17:04:50.265Z,12.73
2023-02-12T17:07:24.406Z,13.70
2023-02-12T17:09:51.642Z,12.55
2023-02-12T17:12:19.043Z,12.63
2023-02-12T17:14:46.099Z,12.63
2023-02-12T17:17:13.280Z,13.05
2023-02-12T17:19:40.443Z,13.32
2023-02-12T17:22:08.935Z,12.38
2023-02-12T17:24:36.117Z,12.15
2023-02-12T17:27:03.686Z,13.10
2023-02-12T17:29:31.120Z,12.20
2023-02-12T17:31:58.582Z,11.57
2023-02-12T17:34:25.755Z,12.45
2023-02-12T17:36:53.382Z,12.35
2023-02-12T17:39:20.657Z,13.20
2023-02-12T17:41:48.103Z,12.50
2023-02-12T17:44:15.586Z,11.82
2023-02-12T17:46:42.886Z,11.55
2023-02-12T17:49:10.339Z,11.68
2023-02-12T17:51:37.740Z,11.68
2023-02-12T17:54:05.109Z,12.20
2023-02-12T17:56:32.361Z,12.50
2023-02-12T17:58:59.585Z,12.13
2023-02-12T18:01:26.863Z,12.73
2023-02-12T18:03:55.829Z,12.35
2023-02-12T18:06:27.109Z,11.88
2023-02-12T18:08:55.260Z,11.85
2023-02-12T18:11:22.412Z,13.00
2023-02-12T18:13:52.442Z,12.75
2023-02-12T18:16:19.828Z,13.73
2023-02-12T18:18:47.016Z,13.27
2023-02-12T18:21:15.752Z,13.18
2023-02-12T18:23:42.846Z,14.45
2023-02-12T18:26:11.428Z,12.68
2023-02-12T18:28:38.850Z,13.73
2023-02-12T18:31:06.888Z,14.20
2023-02-12T18:33:34.598Z,13.68
2023-02-12T18:36:03.251Z,12.77
2023-02-12T18:38:30.839Z,12.35
2023-02-12T18:41:00.180Z,13.63
2023-02-12T18:43:28.039Z,14.98
2023-02-12T18:45:55.301Z,14.52
2023-02-12T18:48:23.121Z,14.35
2023-02-12T18:50:51.756Z,13.85
2023-02-12T18:53:19.124Z,17.20
2023-02-12T18:55:46.413Z,15.52
2023-02-12T18:58:13.505Z,15.73
2023-02-12T19:00:40.782Z,16.02
2023-02-12T19:03:08.004Z,17.05
2023-02-12T19:05:35.210Z,16.98
2023-02-12T19:08:03.077Z,16.65
2023-02-12T19:10:30.443Z,17.75
2023-02-12T19:12:57.648Z,17.20
2023-02-12T19:15:24.783Z,15.80
2023-02-12T19:17:52.002Z,16.13
2023-02-12T19:20:19.353Z,16.27
2023-02-12T19:22:47.261Z,15.82
2023-02-12T19:25:14.515Z,14.63
2023-02-12T19:27:41.868Z,14.77
2023-02-12T19:30:09.304Z,14.80
2023-02-12T19:32:38.024Z,15.05
2023-02-12T19:35:05.674Z,13.32
2023-02-12T19:37:32.885Z,13.80
2023-02-12T19:40:00.183Z,13.65
2023-02-12T19:42:27.421Z,15.65
2023-02-12T19:44:54.696Z,14.07
2023-02-12T19:47:21.962Z,13.32
2023-02-12T19:49:49.122Z,11.90
2023-02-12T19:52:16.398Z,12.43
2023-02-12T19:54:45.097Z,13.98
2023-02-12T19:57:13.522Z,13.60
2023-02-12T19:59:42.814Z,13.38
2023-02-12T20:02:10.759Z,15.13
2023-02-12T20:04:38.027Z,15.77
2023-02-12T20:07:05.184Z,13.82
2023-02-12T20:09:32.336Z,14.00
2023-02-12T20:11:59.695Z,13.73
2023-02-12T20:14:26.966Z,13.63
2023-02-12T20:16:55.573Z,14.98
2023-02-12T20:19:26.008Z,14.27
2023-02-12T20:21:55.626Z,13.82
2023-02-12T20:24:29.947Z,13.48
2023-02-12T20:26:57.738Z,13.60
2023-02-12T20:29:25.316Z,12.85
2023-02-12T20:31:52.634Z,13.50
2023-02-12T20:34:20.591Z,12.88
2023-02-12T20:36:48.129Z,13.45
2023-02-12T20:39:21.103Z,14.02
2023-02-12T20:41:48.545Z,14.55
2023-02-12T20:44:17.134Z,13.45
2023-02-12T20:46:47.785Z,13.65
2023-02-12T20:49:15.749Z,13.32
2023-02-12T20:51:43.303Z,13.48
2023-02-12T20:54:10.509Z,13.02
2023-02-12T20:56:38.136Z,13.15
2023-02-12T20:59:06.616Z,14.60
2023-02-12T21:01:35.288Z,12.98
2023-02-12T21:04:07.038Z,13.63
2023-02-12T21:06:34.498Z,14.33
2023-02-12T21:09:01.752Z,14.43
2023-02-12T21:11:29.554Z,15.20
2023-02-12T21:14:12.478Z,15.27
2023-02-12T21:16:45.414Z,15.20
2023-02-12T21:19:14.021Z,14.88
2023-02-12T21:21:42.146Z,13.68
2023-02-12T21:24:10.615Z,15.40
2023-02-12T21:26:38.327Z,13.25
2023-02-12T21:29:06.266Z,13.75
2023-02-12T21:31:38.044Z,13.50
2023-02-12T21:34:06.217Z,13.85
2023-02-12T21:36:35.480Z,13.73
2023-02-12T21:39:02.739Z,13.73
2023-02-12T21:41:30.904Z,14.57
2023-02-12T21:44:02.241Z,12.63
2023-02-12T21:46:29.781Z,13.13
2023-02-12T21:48:57.087Z,13.98
2023-02-12T21:51:24.290Z,14.38
2023-02-12T21:53:52.310Z,13.82
2023-02-12T21:56:20.025Z,13.98
2023-02-12T21:58:47.698Z,12.90
2023-02-12T22:01:16.363Z,12.85
2023-02-12T22:03:46.515Z,14.15
2023-02-12T22:06:14.313Z,12.95
2023-02-12T22:08:41.424Z,12.63
2023-02-12T22:11:09.530Z,13.00
2023-02-12T22:13:37.542Z,12.45
2023-02-12T22:16:11.758Z,13.88
2023-02-12T22:18:39.400Z,12.65
2023-02-12T22:21:07.724Z,11.68
2023-02-12T22:23:35.829Z,12.10
2023-02-12T22:26:10.845Z,12.60
2023-02-12T22:28:42.230Z,12.50
2023-02-12T22:31:10.264Z,11.75
2023-02-12T22:33:37.481Z,12.57
2023-02-12T22:36:05.591Z,13.70
2023-02-12T22:38:36.384Z,12.88
2023-02-12T22:41:03.979Z,13.43
2023-02-12T22:43:31.792Z,12.70
2023-02-12T22:45:59.119Z,13.55
2023-02-12T22:48:28.320Z,12.75
2023-02-12T22:50:56.474Z,12.05
2023-02-12T22:53:24.229Z,13.07
2023-02-12T22:55:51.475Z,14.32
2023-02-12T22:58:18.540Z,13.70
2023-02-12T23:00:45.833Z,13.43
2023-02-12T23:03:13.023Z,13.98
2023-02-12T23:05:40.288Z,13.18
2023-02-12T23:08:07.774Z,13.20
2023-02-12T23:10:34.835Z,14.43
2023-02-12T23:13:02.727Z,12.13
2023-02-12T23:15:30.551Z,14.20
2023-02-12T23:17:57.886Z,13.65
2023-02-12T23:20:25.019Z,12.38
2023-02-12T23:22:52.163Z,12.82
2023-02-12T23:25:19.358Z,13.25
2023-02-12T23:27:46.525Z,12.30
2023-02-12T23:30:13.914Z,13.63
2023-02-12T23:32:41.070Z,14.18
2023-02-12T23:35:08.336Z,12.50
2023-02-12T23:37:36.667Z,12.57
2023-02-12T23:40:03.766Z,12.15
2023-02-12T23:42:30.876Z,11.82
2023-02-12T23:44:58.000Z,13.15
2023-02-12T23:47:25.217Z,13.02
2023-02-12T23:49:52.324Z,13.88
2023-02-12T23:52:38.148Z,13.57
2023-02-12T23:55:05.412Z,15.30
2023-02-12T23:57:32.515Z,12.60
2023-02-12T23:59:59.648Z,13.48
